Indianapolis, IN

01:36 PM EST die 23o November, anno 2014 (GMT -0500)
Indianapolis Terry | Change Station
CLOSE
Current Station
Airport
Location: Indianapolis,
Elevation: 922 ft
Nearby Weather Stations

Elev 922 ft 40.03 °N, 86.25 °W | Updated 21 minutes ago

Aequaliter Nubila
Aequaliter Nubila
52 °F
Feels Like 52 °F
N
10
Ventus Variabilis Ventus from Magis Auster quam Eurus

Hodie
High -- | Low -- °F
--% Chance of Precip.
Yesterday
High -- | Low -- °F
Precip. -- in
7:38 AM 5:23 PM
New, 2% visible
Pressio 29.69 in
Visibilitas 7.0 milia passuum
Clouds Aequaliter Nubila 2500 ft
Frigus in quo Ros apparet 48 °F
Umor 85%
Rainfall 0.24 in
Snow Depth Not available.
UV 1 out of 12
Pollen .10 out of 12
Air Quality Not available.
Flu Activity Not available.
METAR KTYQ 231815Z AUTO 15009KT 7SM RA OVC025 11/09 A2969 RMK AO2 T01100086

More Conditions Fewer Conditions

Pressio 29.69 in
Visibilitas 7.0 milia passuum
Clouds Aequaliter Nubila 2500 ft
Frigus in quo Ros apparet 48 °F
Umor 85%
Rainfall 0.24 in
Snow Depth Not available.
UV 1 out of 12
Pollen .10 out of 12
Air Quality Not available.
Flu Activity Not available.
METAR KTYQ 231815Z AUTO 15009KT 7SM RA OVC025 11/09 A2969 RMK AO2 T01100086

More Conditions Fewer Conditions

10-Day Weather Forecast

Almanac

Astronomy

Nov. 23, 2014 Rise Set
Actual Time
Civil Twilight
Nautical Twilight
Astronomical Twilight
Moon
Length Of Visible Light
Length of Day
Tomorrow will be .
, % of the Moon is Illuminated

Today's Extremes

State Highs State Lows

Community

WunderPhotos

Upload Photos

1,773,126 photos uploaded!

WunderBlogs® & News

Nearby

Air Quality

  Air Quality AQ Index Pollutant
Not available.

Snow Depth

Station Depth Elevation

Earthquake Activity

City Distance Mag. Time & Date
Minimum magnitude displayed is 2.5.

Coastal Water Temperatures

Locus Calor

Nearby Weather Stations